This is the latest recevied weather packets stored in our database for station/object IW8PDD-3. If no packets are shown the sender has not sent any weather packets the latest 10 day(s).
| Time | Temp. | Humidity | Pressure | Rain* | Wind** | Luminosity | Snow |
|---|---|---|---|---|---|---|---|
| 1777504794 | 20° C | 45% | 1016 hPa | - | - | - | - |
| 1777503590 | 19.44° C | 46% | 1016.1 hPa | - | - | - | - |
| 1777502387 | 19.44° C | 46% | 1016.2 hPa | - | - | - | - |
| 1777501183 | 19.44° C | 46% | 1016.3 hPa | - | - | - | - |
| 1777499980 | 20° C | 46% | 1016.4 hPa | - | - | - | - |
| 1777497573 | 19.44° C | 48% | 1016.5 hPa | - | - | - | - |
| 1777492759 | 20° C | 48% | 1016.5 hPa | - | - | - | - |
| 1777491555 | 20° C | 48% | 1016.3 hPa | - | - | - | - |
| 1777490352 | 20.56° C | 47% | 1016.2 hPa | - | - | - | - |
| 1777489149 | 20.56° C | 47% | 1016.2 hPa | - | - | - | - |
| 1777487945 | 20.56° C | 47% | 1016 hPa | - | - | - | - |
| 1777486742 | 20.56° C | 46% | 1015.8 hPa | - | - | - | - |
| 1777485538 | 21.11° C | 46% | 1015.9 hPa | - | - | - | - |
| 1777484335 | 21.11° C | 45% | 1015.9 hPa | - | - | - | - |
| 1777483131 | 21.67° C | 45% | 1016 hPa | - | - | - | - |
| 1777481919 | 22.22° C | 43% | 1015.8 hPa | - | - | - | - |
| 1777480716 | 22.22° C | 45% | 1015.8 hPa | - | - | - | - |
| 1777479512 | 21.67° C | 45% | 1015.9 hPa | - | - | - | - |
| 1777475902 | 22.78° C | 41% | 1016.1 hPa | - | - | - | - |
| 1777474698 | 23.89° C | 40% | 1016.1 hPa | - | - | - | - |
| 1777473495 | 26.11° C | 38% | 1016.2 hPa | - | - | - | - |
| 1777472292 | 25° C | 38% | 1016.1 hPa | - | - | - | - |
| 1777471088 | 26.11° C | 38% | 1016.1 hPa | - | - | - | - |
| 1777469885 | 26.11° C | 38% | 1016.2 hPa | - | - | - | - |
| 1777468681 | 26.67° C | 39% | 1016.4 hPa | - | - | - | - |
* Rain since midnight (hover to see other rain measurements)
** Current wind speed in m/s (hover to see current wind gust speed)